createdAt,value
2022-12-19T00:01:58.672Z,19.99
2022-12-19T00:04:27.278Z,19.96
2022-12-19T00:06:57.939Z,19.97
2022-12-19T00:09:27.398Z,19.88
2022-12-19T00:11:55.668Z,19.88
2022-12-19T00:14:23.852Z,19.89
2022-12-19T00:16:52.202Z,19.87
2022-12-19T00:19:20.388Z,19.82
2022-12-19T00:21:48.613Z,19.72
2022-12-19T00:24:21.240Z,19.71
2022-12-19T00:26:50.202Z,19.75
2022-12-19T00:29:18.492Z,19.79
2022-12-19T00:31:46.860Z,19.73
2022-12-19T00:34:16.058Z,19.73
2022-12-19T00:36:44.436Z,19.71
2022-12-19T00:39:12.447Z,19.67
2022-12-19T00:41:41.621Z,19.60
2022-12-19T00:44:14.613Z,19.65
2022-12-19T00:46:47.399Z,19.69
2022-12-19T00:49:21.590Z,19.64
2022-12-19T00:51:49.963Z,19.64
2022-12-19T00:54:18.137Z,19.66
2022-12-19T00:56:46.918Z,19.65
2022-12-19T00:59:14.947Z,19.63
2022-12-19T01:01:46.514Z,19.67
2022-12-19T01:04:33.456Z,19.72
2022-12-19T01:07:04.315Z,19.69
2022-12-19T01:09:34.616Z,19.64
2022-12-19T01:12:06.645Z,19.57
2022-12-19T01:14:35.607Z,19.52
2022-12-19T01:17:03.861Z,19.49
2022-12-19T01:19:31.966Z,19.48
2022-12-19T01:22:01.676Z,19.47
2022-12-19T01:24:30.445Z,19.45
2022-12-19T01:26:58.529Z,19.41
2022-12-19T01:29:28.861Z,19.43
2022-12-19T01:31:59.087Z,19.40
2022-12-19T01:34:28.290Z,19.38
2022-12-19T01:36:56.911Z,19.39
2022-12-19T01:39:25.163Z,19.38
2022-12-19T01:41:56.054Z,19.42
2022-12-19T01:44:25.127Z,19.41
2022-12-19T01:46:56.756Z,19.44
2022-12-19T01:49:38.046Z,19.43
2022-12-19T01:52:10.321Z,19.46
2022-12-19T01:54:42.841Z,19.43
2022-12-19T01:57:14.339Z,19.48
2022-12-19T01:59:54.088Z,19.46
2022-12-19T02:02:31.499Z,19.48
2022-12-19T02:05:00.696Z,19.41
2022-12-19T02:07:29.540Z,19.45
2022-12-19T02:09:58.783Z,19.42
2022-12-19T02:12:30.281Z,19.43
2022-12-19T02:15:02.945Z,19.37
2022-12-19T02:17:31.524Z,19.40
2022-12-19T02:20:05.381Z,19.35
2022-12-19T02:22:52.446Z,19.31
2022-12-19T02:25:39.274Z,19.26
2022-12-19T02:28:25.971Z,19.30
2022-12-19T02:31:17.705Z,19.33
2022-12-19T02:33:56.241Z,19.37
2022-12-19T02:36:48.383Z,19.35
2022-12-19T02:39:37.179Z,19.32
2022-12-19T02:42:08.316Z,19.32
2022-12-19T02:44:51.700Z,19.26
2022-12-19T02:47:21.890Z,19.21
2022-12-19T02:49:50.185Z,19.22
2022-12-19T02:52:21.440Z,19.19
2022-12-19T02:54:52.285Z,19.17
2022-12-19T02:57:38.002Z,19.12
2022-12-19T03:00:14.867Z,19.12
2022-12-19T03:03:05.881Z,19.17
2022-12-19T03:05:57.972Z,19.23
2022-12-19T03:08:38.989Z,19.21
2022-12-19T03:11:14.225Z,19.17
2022-12-19T03:13:48.508Z,19.15
2022-12-19T03:16:16.690Z,19.16
2022-12-19T03:18:45.710Z,19.18
2022-12-19T03:21:37.242Z,19.16
2022-12-19T03:24:09.524Z,19.16
2022-12-19T03:27:02.688Z,19.23
2022-12-19T03:29:33.100Z,19.28
2022-12-19T03:32:04.371Z,19.27
2022-12-19T03:34:42.526Z,19.21
2022-12-19T03:37:17.073Z,19.19
2022-12-19T03:39:48.924Z,19.13
2022-12-19T03:42:19.241Z,19.05
2022-12-19T03:44:50.313Z,18.96
2022-12-19T03:47:23.989Z,18.91
2022-12-19T03:49:53.153Z,18.83
2022-12-19T03:52:30.337Z,18.88
2022-12-19T03:55:25.297Z,18.95
2022-12-19T03:58:13.935Z,18.98
2022-12-19T04:00:46.404Z,18.94
2022-12-19T04:03:17.867Z,18.94
2022-12-19T04:05:48.220Z,18.93
2022-12-19T04:08:17.371Z,18.94
2022-12-19T04:10:52.119Z,18.96
2022-12-19T04:13:32.378Z,18.94
2022-12-19T04:16:18.356Z,18.92
2022-12-19T04:18:52.936Z,18.94
2022-12-19T04:21:51.405Z,18.96
2022-12-19T04:24:26.371Z,18.91
2022-12-19T04:26:57.374Z,18.86
2022-12-19T04:29:28.332Z,18.83
2022-12-19T04:31:57.086Z,18.87
2022-12-19T04:34:25.685Z,18.86
2022-12-19T04:36:54.015Z,18.80
2022-12-19T04:39:22.461Z,18.71
2022-12-19T04:41:51.371Z,18.72
2022-12-19T04:44:19.599Z,18.61
2022-12-19T04:46:47.935Z,18.57
2022-12-19T04:49:16.420Z,18.58
2022-12-19T04:51:44.525Z,18.64
2022-12-19T04:54:12.699Z,18.59
2022-12-19T04:56:41.220Z,18.61
2022-12-19T04:59:13.363Z,18.61
2022-12-19T05:01:41.859Z,18.59
2022-12-19T05:04:10.334Z,18.63
2022-12-19T05:06:38.621Z,18.60
2022-12-19T05:09:07.295Z,18.58
2022-12-19T05:11:35.423Z,18.53
2022-12-19T05:14:04.047Z,18.46
2022-12-19T05:16:32.440Z,18.47
2022-12-19T05:19:00.571Z,18.54
2022-12-19T05:21:28.685Z,18.53
2022-12-19T05:23:56.980Z,18.49
2022-12-19T05:26:27.761Z,18.54
2022-12-19T05:28:55.837Z,18.56
2022-12-19T05:31:24.358Z,18.58
2022-12-19T05:33:52.605Z,18.56
2022-12-19T05:36:21.975Z,18.65
2022-12-19T05:38:50.372Z,18.60
2022-12-19T05:41:20.841Z,18.54
2022-12-19T05:43:54.486Z,18.50
2022-12-19T05:46:23.907Z,18.48
2022-12-19T05:48:53.337Z,18.47
2022-12-19T05:51:22.190Z,18.51
2022-12-19T05:53:50.221Z,18.48
2022-12-19T05:56:21.527Z,18.43
2022-12-19T05:58:50.443Z,18.44
2022-12-19T06:01:25.221Z,18.44
2022-12-19T06:03:54.991Z,18.52
2022-12-19T06:06:26.429Z,18.46
2022-12-19T06:08:56.332Z,18.42
2022-12-19T06:11:26.225Z,18.42
2022-12-19T06:13:54.950Z,18.41
2022-12-19T06:16:23.656Z,18.36
2022-12-19T06:18:52.034Z,18.30
2022-12-19T06:21:22.293Z,18.34
2022-12-19T06:23:50.995Z,18.37
2022-12-19T06:26:21.127Z,18.35
2022-12-19T06:28:51.080Z,18.38
2022-12-19T06:31:21.307Z,18.39
2022-12-19T06:33:50.087Z,18.40
2022-12-19T06:36:24.445Z,18.38
2022-12-19T06:38:55.119Z,18.43
2022-12-19T06:41:23.954Z,18.37
2022-12-19T06:43:53.869Z,18.38
2022-12-19T06:46:22.349Z,18.42
2022-12-19T06:48:51.808Z,18.41
2022-12-19T06:51:20.475Z,18.43
2022-12-19T06:53:49.611Z,18.44
2022-12-19T06:56:18.434Z,18.40
2022-12-19T06:58:47.529Z,18.37
2022-12-19T07:01:34.786Z,18.34
2022-12-19T07:04:03.646Z,18.38
2022-12-19T07:06:31.861Z,18.42
2022-12-19T07:08:59.999Z,18.44
2022-12-19T07:11:28.259Z,18.47
2022-12-19T07:13:57.137Z,18.53
2022-12-19T07:16:26.752Z,18.60
2022-12-19T07:18:55.325Z,18.55
2022-12-19T07:21:23.450Z,18.57
2022-12-19T07:23:51.661Z,18.57
2022-12-19T07:26:20.008Z,18.63
2022-12-19T07:28:48.110Z,18.69
2022-12-19T07:31:16.299Z,18.71
2022-12-19T07:33:44.499Z,18.80
2022-12-19T07:36:13.481Z,18.82
2022-12-19T07:38:42.308Z,18.81
2022-12-19T07:41:10.779Z,18.89
2022-12-19T07:43:40.229Z,18.97
2022-12-19T07:46:08.825Z,19.11
2022-12-19T07:48:37.347Z,19.44
2022-12-19T07:51:06.262Z,20.05
2022-12-19T07:53:34.454Z,20.66
2022-12-19T07:56:02.724Z,21.24
2022-12-19T07:58:30.873Z,21.98
2022-12-19T08:01:00.683Z,22.92
2022-12-19T08:03:29.354Z,23.86
2022-12-19T08:06:01.803Z,24.65
2022-12-19T08:08:30.552Z,25.12
2022-12-19T08:11:19.853Z,25.41
2022-12-19T08:13:48.794Z,25.92
2022-12-19T08:16:17.070Z,26.52
2022-12-19T08:18:45.829Z,26.98
2022-12-19T08:21:14.609Z,27.49
2022-12-19T08:23:42.872Z,27.72
2022-12-19T08:26:13.545Z,28.20
2022-12-19T08:28:41.828Z,28.99
2022-12-19T08:31:13.029Z,29.76
2022-12-19T08:33:42.402Z,30.63
2022-12-19T08:36:13.333Z,31.47
2022-12-19T08:38:42.070Z,32.11
2022-12-19T08:41:11.177Z,32.79
2022-12-19T08:43:39.843Z,33.48
2022-12-19T08:46:10.124Z,33.90
2022-12-19T08:48:38.575Z,34.13
2022-12-19T08:51:08.958Z,34.52
2022-12-19T08:53:39.462Z,34.99
2022-12-19T08:56:17.264Z,35.43
2022-12-19T08:58:46.218Z,36.04
2022-12-19T09:01:17.785Z,36.28
2022-12-19T09:04:50.252Z,36.55
2022-12-19T09:06:35.929Z,37.02
2022-12-19T09:09:05.553Z,37.55
2022-12-19T09:11:33.770Z,38.01
2022-12-19T09:14:04.464Z,38.37
2022-12-19T09:16:32.980Z,38.67
2022-12-19T09:19:01.142Z,39.02
2022-12-19T09:21:30.011Z,39.58
2022-12-19T09:24:07.025Z,39.92
2022-12-19T09:26:38.191Z,39.96
2022-12-19T09:29:19.657Z,40.09
2022-12-19T09:31:55.257Z,40.31
2022-12-19T09:34:37.089Z,40.71
2022-12-19T09:37:15.170Z,40.79
2022-12-19T09:39:47.260Z,40.79
2022-12-19T09:42:41.455Z,40.72
2022-12-19T09:45:58.362Z,40.71
2022-12-19T09:48:26.590Z,40.56
2022-12-19T09:51:11.173Z,40.53
2022-12-19T09:54:01.754Z,40.25
2022-12-19T09:56:45.363Z,40.02
2022-12-19T09:59:39.722Z,39.65
2022-12-19T10:02:37.883Z,39.63
2022-12-19T10:05:27.864Z,39.73
2022-12-19T10:08:08.390Z,39.59
2022-12-19T10:12:38.769Z,40.05
2022-12-19T10:13:45.225Z,40.08
2022-12-19T10:16:36.611Z,39.55
2022-12-19T10:19:15.195Z,39.05
2022-12-19T10:22:18.194Z,39.40
2022-12-19T10:25:21.709Z,39.87
2022-12-19T10:27:59.708Z,39.82
2022-12-19T10:30:32.424Z,40.36
2022-12-19T10:33:28.983Z,40.48
2022-12-19T10:36:01.982Z,39.96
2022-12-19T10:38:51.028Z,40.10
2022-12-19T10:41:29.819Z,40.35
2022-12-19T10:44:09.172Z,40.78
2022-12-19T10:46:47.136Z,40.69
2022-12-19T10:49:17.893Z,41.07
2022-12-19T10:52:07.986Z,40.91
2022-12-19T10:54:36.320Z,40.87
2022-12-19T10:57:22.704Z,40.42
2022-12-19T11:00:19.223Z,39.42
2022-12-19T11:02:50.898Z,38.62
2022-12-19T11:05:31.315Z,39.00
2022-12-19T11:08:11.275Z,39.75
2022-12-19T11:11:34.378Z,40.44
2022-12-19T11:18:23.032Z,40.35
2022-12-19T11:21:41.075Z,40.01
2022-12-19T11:29:24.991Z,40.41
2022-12-19T11:29:38.157Z,39.51
2022-12-19T11:30:47.445Z,38.04
2022-12-19T11:30:47.446Z,38.68
2022-12-19T11:34:25.163Z,36.81
2022-12-19T11:37:18.462Z,37.04
2022-12-19T11:40:15.729Z,37.34
2022-12-19T11:43:41.955Z,37.63
2022-12-19T11:46:24.204Z,37.26
2022-12-19T11:49:02.594Z,37.00
2022-12-19T11:51:48.758Z,37.33
2022-12-19T11:54:35.019Z,37.32
2022-12-19T11:57:03.927Z,37.24
2022-12-19T11:59:37.116Z,36.97
2022-12-19T12:02:30.971Z,36.62
2022-12-19T12:05:09.383Z,36.07
2022-12-19T12:08:40.526Z,35.61
2022-12-19T12:15:11.283Z,35.44
2022-12-19T12:21:50.076Z,35.20
2022-12-19T12:28:41.532Z,33.29
2022-12-19T12:30:11.680Z,34.88
2022-12-19T12:31:05.201Z,34.15
2022-12-19T12:31:38.593Z,32.65
2022-12-19T12:31:49.077Z,32.51
2022-12-19T12:35:38.189Z,31.92
2022-12-19T12:35:48.613Z,32.13
2022-12-19T12:38:25.427Z,31.74
2022-12-19T12:41:16.795Z,31.38
2022-12-19T12:43:47.898Z,31.12
2022-12-19T12:46:23.494Z,30.93
2022-12-19T12:48:58.978Z,30.54
2022-12-19T12:51:28.160Z,30.36
2022-12-19T12:54:06.208Z,30.53
2022-12-19T12:56:36.872Z,30.50
2022-12-19T12:59:20.785Z,30.30
2022-12-19T13:02:17.858Z,30.33
2022-12-19T13:05:00.284Z,30.22
2022-12-19T13:07:51.442Z,30.03
2022-12-19T13:10:29.889Z,29.96
2022-12-19T13:13:15.832Z,29.64
2022-12-19T13:15:46.535Z,29.64
2022-12-19T13:18:35.287Z,29.34
2022-12-19T13:21:05.824Z,29.37
2022-12-19T13:23:36.876Z,29.35
2022-12-19T13:26:19.956Z,29.39
2022-12-19T13:28:48.731Z,29.48
2022-12-19T13:31:22.398Z,29.36
2022-12-19T13:33:57.132Z,29.49
2022-12-19T13:39:54.403Z,29.43
2022-12-19T13:40:14.159Z,29.29
2022-12-19T13:43:10.599Z,29.45
2022-12-19T13:45:48.179Z,29.53
2022-12-19T13:48:26.661Z,29.49
2022-12-19T13:50:57.008Z,29.20
2022-12-19T13:53:30.336Z,29.16
2022-12-19T13:56:06.255Z,29.26
2022-12-19T13:58:45.245Z,29.21
2022-12-19T14:01:30.873Z,28.98
2022-12-19T14:04:08.730Z,28.91
2022-12-19T14:06:46.980Z,29.06
2022-12-19T14:11:29.368Z,29.09
2022-12-19T14:13:53.335Z,29.15
2022-12-19T14:15:35.204Z,29.32
2022-12-19T14:18:42.713Z,29.44
2022-12-19T14:22:07.036Z,29.73
2022-12-19T14:24:20.067Z,29.86
2022-12-19T14:28:24.083Z,29.97
2022-12-19T14:30:27.745Z,30.02
2022-12-19T14:33:46.308Z,30.12
2022-12-19T14:36:11.293Z,30.26
2022-12-19T14:39:27.112Z,30.13
2022-12-19T14:41:27.665Z,30.18
2022-12-19T14:50:25.593Z,30.28
2022-12-19T14:52:35.337Z,30.44
2022-12-19T14:54:05.506Z,29.97
2022-12-19T14:54:55.200Z,29.22
2022-12-19T14:56:11.484Z,28.89
2022-12-19T14:58:53.010Z,28.57
2022-12-19T15:01:24.978Z,28.31
2022-12-19T15:04:51.894Z,28.31
2022-12-19T15:07:07.984Z,28.15
2022-12-19T15:11:08.247Z,28.14
2022-12-19T15:14:47.322Z,27.87
2022-12-19T15:15:40.385Z,28.12
2022-12-19T15:18:33.167Z,28.22
2022-12-19T15:21:09.225Z,28.39
2022-12-19T15:23:37.221Z,28.30
2022-12-19T15:26:11.376Z,28.25
2022-12-19T15:28:43.748Z,28.16
2022-12-19T15:31:18.237Z,28.31
2022-12-19T15:34:14.899Z,28.34
2022-12-19T15:36:35.579Z,28.27
2022-12-19T15:39:04.600Z,28.20
2022-12-19T15:41:32.669Z,28.21
2022-12-19T15:44:07.559Z,28.21
2022-12-19T15:46:35.840Z,27.94
2022-12-19T15:49:04.066Z,27.89
2022-12-19T15:51:32.277Z,27.84
2022-12-19T15:54:30.180Z,27.71
2022-12-19T15:56:53.095Z,27.73
2022-12-19T15:59:37.862Z,27.71
2022-12-19T16:02:18.514Z,27.63
2022-12-19T16:04:50.178Z,27.49
2022-12-19T16:07:21.755Z,27.35
2022-12-19T16:09:50.611Z,27.32
2022-12-19T16:12:25.109Z,27.19
2022-12-19T16:14:59.926Z,27.13
2022-12-19T16:17:32.116Z,27.10
2022-12-19T16:20:00.322Z,27.07
2022-12-19T16:22:29.795Z,26.99
2022-12-19T16:24:58.113Z,26.95
2022-12-19T16:27:31.644Z,26.86
2022-12-19T16:30:18.557Z,26.72
2022-12-19T16:32:50.809Z,26.23
2022-12-19T16:35:40.164Z,26.08
2022-12-19T16:38:09.743Z,26.05
2022-12-19T16:40:38.430Z,26.05
2022-12-19T16:43:19.438Z,25.93
2022-12-19T16:45:48.039Z,25.79
2022-12-19T16:48:26.766Z,25.72
2022-12-19T16:50:57.856Z,25.64
2022-12-19T16:53:26.256Z,25.45
2022-12-19T16:55:56.787Z,25.29
2022-12-19T16:58:27.503Z,25.11
2022-12-19T17:00:56.428Z,24.87
2022-12-19T17:03:30.713Z,24.75
2022-12-19T17:05:59.272Z,24.82
2022-12-19T17:08:27.672Z,24.82
2022-12-19T17:10:56.417Z,24.82
2022-12-19T17:13:25.442Z,24.81
2022-12-19T17:15:57.092Z,24.70
2022-12-19T17:18:30.944Z,24.63
2022-12-19T17:20:59.561Z,24.60
2022-12-19T17:23:30.113Z,24.60
2022-12-19T17:25:59.260Z,24.54
2022-12-19T17:28:29.210Z,24.56
2022-12-19T17:31:02.618Z,24.53
2022-12-19T17:33:36.129Z,24.50
2022-12-19T17:36:06.438Z,24.54
2022-12-19T17:38:35.110Z,24.65
2022-12-19T17:41:04.225Z,24.65
2022-12-19T17:43:32.789Z,24.67
2022-12-19T17:46:01.333Z,24.65
2022-12-19T17:48:32.350Z,24.65
2022-12-19T17:51:01.432Z,24.53
2022-12-19T17:53:29.726Z,24.30
2022-12-19T17:55:57.957Z,24.23
2022-12-19T17:58:26.274Z,24.24
2022-12-19T18:00:54.574Z,24.25
2022-12-19T18:03:26.919Z,24.29
2022-12-19T18:05:56.303Z,24.32
2022-12-19T18:08:28.652Z,24.37
2022-12-19T18:11:01.470Z,24.41
2022-12-19T18:13:31.580Z,24.35
2022-12-19T18:16:02.454Z,24.27
2022-12-19T18:18:34.949Z,24.30
2022-12-19T18:21:04.389Z,24.30
2022-12-19T18:23:33.466Z,24.26
2022-12-19T18:26:02.812Z,24.17
2022-12-19T18:28:31.414Z,24.10
2022-12-19T18:31:03.285Z,24.02
2022-12-19T18:33:42.089Z,23.97
2022-12-19T18:36:19.692Z,23.97
2022-12-19T18:38:50.106Z,23.96
2022-12-19T18:41:19.398Z,23.93
2022-12-19T18:43:48.523Z,23.92
2022-12-19T18:46:22.747Z,23.88
2022-12-19T18:48:51.248Z,23.85
2022-12-19T18:51:22.285Z,23.80
2022-12-19T18:53:52.237Z,23.78
2022-12-19T18:56:20.623Z,23.80
2022-12-19T18:58:48.768Z,23.80
2022-12-19T19:01:19.580Z,23.76
2022-12-19T19:03:56.957Z,23.72
2022-12-19T19:06:32.952Z,23.87
2022-12-19T19:09:04.198Z,23.78
2022-12-19T19:11:32.381Z,23.73
2022-12-19T19:14:00.508Z,23.70
2022-12-19T19:16:28.892Z,23.64
2022-12-19T19:18:58.935Z,23.63
2022-12-19T19:21:32.263Z,23.60
2022-12-19T19:24:06.157Z,23.62
2022-12-19T19:26:34.362Z,23.65
2022-12-19T19:29:02.570Z,23.61
2022-12-19T19:31:33.779Z,23.58
2022-12-19T19:34:12.741Z,23.50
2022-12-19T19:36:45.851Z,23.41
2022-12-19T19:39:14.156Z,23.32
2022-12-19T19:41:42.261Z,23.27
2022-12-19T19:44:10.513Z,23.22
2022-12-19T19:46:38.789Z,23.10
2022-12-19T19:49:07.801Z,23.02
2022-12-19T19:51:36.854Z,22.99
2022-12-19T19:54:05.242Z,22.99
2022-12-19T19:56:33.637Z,23.00
2022-12-19T19:59:02.090Z,23.02
2022-12-19T20:01:30.418Z,23.01
2022-12-19T20:03:58.818Z,22.97
2022-12-19T20:06:27.405Z,22.94
2022-12-19T20:08:55.761Z,22.96
2022-12-19T20:11:24.846Z,22.95
2022-12-19T20:13:52.775Z,22.84
2022-12-19T20:16:20.973Z,22.81
2022-12-19T20:18:51.728Z,22.80
2022-12-19T20:21:21.088Z,22.74
2022-12-19T20:23:49.210Z,22.73
2022-12-19T20:26:17.853Z,22.73
2022-12-19T20:28:49.560Z,22.73
2022-12-19T20:31:20.827Z,22.69
2022-12-19T20:33:49.410Z,22.64
2022-12-19T20:36:17.944Z,22.57
2022-12-19T20:38:46.567Z,22.48
2022-12-19T20:41:16.442Z,22.37
2022-12-19T20:43:45.146Z,22.36
2022-12-19T20:46:16.406Z,22.39
2022-12-19T20:48:45.366Z,22.36
2022-12-19T20:51:15.968Z,22.33
2022-12-19T20:53:45.549Z,22.31
2022-12-19T20:56:16.961Z,22.24
2022-12-19T20:58:46.290Z,22.20
2022-12-19T21:01:21.085Z,22.18
2022-12-19T21:03:50.440Z,22.13
2022-12-19T21:06:21.118Z,22.10
2022-12-19T21:08:53.535Z,22.05
2022-12-19T21:11:22.619Z,22.00
2022-12-19T21:13:50.911Z,21.96
2022-12-19T21:16:21.176Z,21.92
2022-12-19T21:18:51.034Z,21.88
2022-12-19T21:21:23.649Z,21.92
2022-12-19T21:23:52.743Z,21.89
2022-12-19T21:26:23.113Z,21.86
2022-12-19T21:28:51.347Z,21.86
2022-12-19T21:31:26.709Z,21.84
2022-12-19T21:33:56.928Z,21.83
2022-12-19T21:36:26.640Z,21.79
2022-12-19T21:38:58.126Z,21.80
2022-12-19T21:41:27.174Z,21.78
2022-12-19T21:43:56.284Z,21.68
2022-12-19T21:46:27.984Z,21.62
2022-12-19T21:48:58.934Z,21.63
2022-12-19T21:51:29.943Z,21.59
2022-12-19T21:54:02.280Z,21.51
2022-12-19T21:56:35.799Z,21.46
2022-12-19T21:59:06.376Z,21.42
2022-12-19T22:01:34.679Z,21.34
2022-12-19T22:04:10.703Z,21.34
2022-12-19T22:06:39.935Z,21.35
2022-12-19T22:09:12.192Z,21.37
2022-12-19T22:11:40.391Z,21.34
2022-12-19T22:14:08.805Z,21.31
2022-12-19T22:16:37.381Z,21.35
2022-12-19T22:19:06.769Z,21.35
2022-12-19T22:21:35.246Z,21.35
2022-12-19T22:24:04.137Z,21.38
2022-12-19T22:26:32.957Z,21.43
2022-12-19T22:29:01.463Z,21.34
2022-12-19T22:31:32.563Z,21.37
2022-12-19T22:34:03.681Z,21.34
2022-12-19T22:36:36.385Z,21.35
2022-12-19T22:39:06.615Z,21.31
2022-12-19T22:41:36.214Z,21.28
2022-12-19T22:44:06.405Z,21.26
2022-12-19T22:46:38.037Z,21.20
2022-12-19T22:49:08.941Z,21.18
2022-12-19T22:51:37.563Z,21.21
2022-12-19T22:54:07.364Z,21.18
2022-12-19T22:56:36.596Z,21.13
2022-12-19T22:59:07.394Z,21.11
2022-12-19T23:01:42.554Z,21.13
2022-12-19T23:04:15.359Z,21.11
2022-12-19T23:06:44.547Z,21.07
2022-12-19T23:09:16.022Z,21.05
2022-12-19T23:11:47.245Z,21.04
2022-12-19T23:14:18.466Z,21.05
2022-12-19T23:16:48.124Z,21.02
2022-12-19T23:19:18.049Z,20.98
2022-12-19T23:21:46.275Z,20.93
2022-12-19T23:24:14.703Z,20.94
2022-12-19T23:26:42.976Z,20.81
2022-12-19T23:29:14.014Z,20.72
2022-12-19T23:31:44.926Z,20.58
2022-12-19T23:34:14.239Z,20.59
2022-12-19T23:39:30.414Z,20.49
2022-12-19T23:41:58.534Z,20.33
2022-12-19T23:44:27.025Z,20.32
2022-12-19T23:47:02.385Z,20.35
2022-12-19T23:49:32.955Z,20.33
2022-12-19T23:52:01.504Z,20.34
2022-12-19T23:54:29.739Z,20.33
2022-12-19T23:56:57.831Z,20.29
2022-12-19T23:59:26.039Z,20.23
